This is the latest recevied weather packets stored in our database for station/object AB8DT-10. If no packets are shown the sender has not sent any weather packets the latest 10 day(s).
| Time | Temp. | Humidity | Pressure | Rain* | Wind** | Luminosity | Snow |
|---|---|---|---|---|---|---|---|
| 1777658819 | 6.67° C | 53% | 0 hPa | 0 mm | - | - | - |
| 1777658520 | 6.67° C | 55% | 0 hPa | 0 mm | - | - | - |
| 1777658220 | 6.11° C | 52% | 0 hPa | 0 mm | - | - | - |
| 1777657920 | 6.67° C | 54% | 0 hPa | 0 mm | - | - | - |
| 1777657620 | 6.67° C | 55% | 0 hPa | 0 mm | - | - | - |
| 1777657320 | 6.11° C | 54% | 0 hPa | 0 mm | - | - | - |
| 1777657020 | 6.11° C | 55% | 0 hPa | 0 mm | - | - | - |
| 1777656720 | 6.11° C | 55% | 0 hPa | 0 mm | - | - | - |
| 1777656419 | 6.11° C | 56% | 0 hPa | 0 mm | - | - | - |
| 1777656120 | 6.67° C | 57% | 0 hPa | 0 mm | - | - | - |
| 1777655820 | 6.67° C | 57% | 0 hPa | 0 mm | - | - | - |
| 1777655520 | 6.67° C | 57% | 0 hPa | 0 mm | - | - | - |
| 1777655220 | 6.67° C | 58% | 0 hPa | 0 mm | - | - | - |
| 1777654920 | 7.22° C | 58% | 0 hPa | 0 mm | - | - | - |
| 1777654620 | 7.22° C | 61% | 0 hPa | 0 mm | - | - | - |
| 1777654320 | 6.67° C | 60% | 0 hPa | 0 mm | - | - | - |
| 1777654020 | 6.11° C | 58% | 0 hPa | 0 mm | - | - | - |
| 1777653720 | 6.11° C | 58% | 0 hPa | 0 mm | - | - | - |
| 1777653420 | 6.67° C | 60% | 0 hPa | 0 mm | - | - | - |
| 1777653120 | 6.11° C | 61% | 0 hPa | 0 mm | - | - | - |
| 1777652820 | 6.11° C | 59% | 0 hPa | 0 mm | - | - | - |
| 1777652520 | 6.11° C | 60% | 0 hPa | 0 mm | - | - | - |
| 1777652220 | 6.11° C | 59% | 0 hPa | 0 mm | - | - | - |
| 1777651920 | 5.56° C | 59% | 0 hPa | 0 mm | - | - | - |
| 1777651620 | 5.56° C | 60% | 0 hPa | 0 mm | - | - | - |
* Rain latest hour (hover to see other rain measurements)
** Current wind speed in m/s (hover to see current wind gust speed)